ADDS METAR Data INFO
IDs: Format: Raw Decoded Include TAF

Data at: 2011 UTC 19 Oct 2017

KAMW 191953Z AUTO 14009KT 10SM CLR 23/10 A3005 RMK AO2 SLP171 T02330100
KAMW 191853Z AUTO 15013KT 10SM CLR 22/07 A3008 RMK AO2 SLP180 T02220067
KAMW 191753Z AUTO 15011KT 10SM CLR 21/04 A3011 RMK AO2 SLP193 T02060044 10206 20039 58008
KAMW 191653Z AUTO 15010KT 10SM CLR 19/04 A3013 RMK AO2 SLP202 T01890039
KAMW 191553Z AUTO 15007KT 10SM CLR 16/06 A3014 RMK AO2 SLP204 T01610056
KAMW 191453Z AUTO 14008KT 10SM CLR 12/06 A3013 RMK AO2 SLP203 T01220056 53011
KAMW 191353Z AUTO 15004KT 10SM CLR 09/07 A3012 RMK AO2 SLP200 T00890067
KAMW 191253Z AUTO 01003KT 10SM CLR 04/04 A3011 RMK AO2 SLP196 T00440039
KAMW 191153Z AUTO 00000KT 10SM CLR 04/04 A3010 RMK AO2 SLP193 T00440039 10100 20033 51009
KAMW 191053Z AUTO 00000KT 10SM CLR 04/04 A3010 RMK AO2 SLP191 T00440044
KAMW 190953Z AUTO 00000KT 10SM CLR 04/04 A3008 RMK AO2 SLP184 T00440044
KAMW 190853Z AUTO 01003KT 10SM CLR 06/05 A3007 RMK AO2 SLP180 T00560050 51011
KAMW 190753Z AUTO 33003KT 10SM CLR 07/06 A3006 RMK AO2 SLP177 T00670061
KAMW 190653Z AUTO 35003KT 10SM CLR 09/08 A3005 RMK AO2 SLP171 T00940078
KAMW 190553Z AUTO 34003KT 10SM CLR 08/08 A3004 RMK AO2 SLP169 T00830078 10172 20078 402390078 53006
KAMW 190453Z AUTO 34003KT 10SM CLR 08/08 A3003 RMK AO2 SLP167 T00830078
KAMW 190353Z AUTO 00000KT 10SM CLR 10/09 A3002 RMK AO2 SLP165 T01000089
KAMW 190253Z AUTO 00000KT 10SM CLR 12/10 A3002 RMK AO2 SLP163 T01170100 51017
KAMW 190153Z AUTO 00000KT 10SM CLR 13/10 A3001 RMK AO2 SLP161 T01330100
KAMW 190053Z AUTO 25007KT 10SM CLR 16/11 A3000 RMK AO2 SLP156 T01560106
KAMW 182353Z AUTO 21005KT 10SM CLR 17/11 A2997 RMK AO2 SLP146 T01670106 10239 20167 53018
KAMW 182253Z AUTO 22006KT 10SM CLR 21/11 A2994 RMK AO2 SLP134 T02110111
KAMW 182153Z AUTO 22010KT 10SM CLR 23/10 A2993 RMK AO2 SLP129 T02330100
KAMW 182053Z AUTO 21015KT 10SM CLR 23/10 A2992 RMK AO2 SLP125 T02330100 55005
KAMW 181953Z AUTO 20012G20KT 10SM CLR 23/10 A2991 RMK AO2 SLP122 T02280100
KAMW 181853Z AUTO 21011G21KT 10SM CLR 22/09 A2992 RMK AO2 SLP126 T02220094
KAMW 181753Z AUTO 20014G20KT 10SM CLR 21/09 A2993 RMK AO2 SLP131 T02060094 10211 20094 58006
KAMW 181653Z AUTO 19015G20KT 10SM CLR 20/10 A2994 RMK AO2 SLP135 T02000100
KAMW 181553Z AUTO 20008G18KT 10SM CLR 18/10 A2996 RMK AO2 SLP140 T01780100
KAMW 181453Z AUTO 19013KT 10SM CLR 15/09 A2995 RMK AO2 SLP139 T01500094 58007
KAMW 181353Z AUTO 18012KT 10SM CLR 12/09 A2996 RMK AO2 SLP144 T01220094
KAMW 181253Z AUTO 18008KT 10SM CLR 10/08 A2996 RMK AO2 SLP145 T01000083
KAMW 181153Z AUTO 17007KT 10SM CLR 10/08 A2997 RMK AO2 SLP148 T01000083 10122 20094 52002
KAMW 181053Z AUTO 18006KT 10SM CLR 10/08 A2997 RMK AO2 SLP145 T01000083
KAMW 180953Z AUTO 17006KT 10SM CLR 11/08 A2996 RMK AO2 SLP142 T01060083
KAMW 180853Z AUTO 17008KT 10SM CLR 11/09 A2997 RMK AO2 SLP142 T01110089 58012